Time;durP1;ratioP1;P1;durP2;ratioP2;P2;SDS_P1;SDS_P2;PMS_P1;PMS_P2;Temp;Humidity;BMP_temperature;BMP_pressure;BME280_temperature;BME280_humidity;BME280_pressure;Samples;Min_cycle;Max_cycle;Signal;HPM_P1;HPM_P2
2021/08/12 00:01:22;;;;;;;10.00;5.62;;;;;;;21.12;100.00;98995.67;1735944;82;20923;-73
2021/08/12 00:03:50;;;;;;;7.90;5.40;;;;;;;21.10;100.00;98995.35;1722072;82;20918;-74
2021/08/12 00:06:19;;;;;;;9.95;5.10;;;;;;;21.10;100.00;99001.59;1748795;82;21935;-74
2021/08/12 00:08:47;;;;;;;12.75;6.28;;;;;;;21.09;100.00;99003.88;1752065;81;20922;-74
2021/08/12 00:11:15;;;;;;;7.72;5.80;;;;;;;21.06;100.00;99003.55;1751298;82;21060;-74
2021/08/12 00:13:44;;;;;;;9.85;5.58;;;;;;;21.04;100.00;99007.27;1710024;82;20938;-73
2021/08/12 00:16:13;;;;;;;8.20;5.20;;;;;;;21.00;100.00;99001.19;1716316;80;20859;-73
2021/08/12 00:18:42;;;;;;;9.08;5.83;;;;;;;20.97;100.00;99004.50;1695861;83;21138;-74
2021/08/12 00:21:10;;;;;;;10.08;5.47;;;;;;;20.94;100.00;99012.70;1736795;82;21002;-74
2021/08/12 00:23:39;;;;;;;9.08;5.47;;;;;;;20.90;100.00;99014.67;1716827;83;21018;-74
2021/08/12 00:26:07;;;;;;;10.03;5.10;;;;;;;20.88;100.00;99007.64;1763980;80;20994;-74
2021/08/12 00:28:35;;;;;;;7.33;5.87;;;;;;;20.88;100.00;99014.34;1718536;80;21049;-74
2021/08/12 00:31:03;;;;;;;10.35;5.80;;;;;;;20.86;100.00;99014.90;1707160;83;21153;-74
2021/08/12 00:33:33;;;;;;;7.03;5.53;;;;;;;20.85;100.00;99013.16;1697103;84;20946;-74
2021/08/12 00:36:02;;;;;;;8.58;6.08;;;;;;;20.82;100.00;99016.86;1707569;83;20982;-74
2021/08/12 00:38:31;;;;;;;8.63;5.42;;;;;;;20.79;100.00;99020.14;1707591;84;20895;-74
2021/08/12 00:40:59;;;;;;;10.98;5.87;;;;;;;20.75;100.00;99014.93;1707394;84;20922;-74
2021/08/12 00:43:30;;;;;;;8.98;5.80;;;;;;;20.72;100.00;99020.44;1707823;83;21075;-74
2021/08/12 00:45:59;;;;;;;7.37;5.83;;;;;;;20.70;100.00;99018.78;1707466;84;21006;-75
2021/08/12 00:48:28;;;;;;;9.18;5.87;;;;;;;20.69;100.00;99019.73;1707669;84;21529;-74
2021/08/12 00:50:57;;;;;;;8.33;5.53;;;;;;;20.69;100.00;99023.27;1751374;82;20922;-74
2021/08/12 00:53:25;;;;;;;8.03;5.20;;;;;;;20.68;100.00;99022.01;1729726;81;21481;-73
2021/08/12 00:55:56;;;;;;;8.63;5.50;;;;;;;20.68;100.00;99024.69;1730514;82;21165;-74
2021/08/12 00:58:26;;;;;;;8.80;5.75;;;;;;;20.65;100.00;99030.20;1708977;82;21568;-72
2021/08/12 01:00:54;;;;;;;7.08;5.37;;;;;;;20.62;100.00;99033.90;1707565;82;20847;-72
2021/08/12 01:03:25;;;;;;;8.93;5.62;;;;;;;20.60;100.00;99030.90;1707555;82;20958;-72
2021/08/12 01:05:57;;;;;;;7.08;5.45;;;;;;;20.56;100.00;99036.02;1710308;82;20991;-74
2021/08/12 01:08:40;;;;;;;7.58;5.15;;;;;;;20.55;100.00;99039.63;1707266;82;21153;-73
2021/08/12 01:11:22;;;;;;;8.93;5.33;;;;;;;20.51;100.00;99034.89;1707160;82;20978;-73
2021/08/12 01:14:30;;;;;;;10.35;5.78;;;;;;;20.52;100.00;99034.42;1707148;83;21081;-73
2021/08/12 01:17:08;;;;;;;11.73;5.33;;;;;;;20.49;100.00;99035.44;1710075;82;21516;-72
2021/08/12 01:20:14;;;;;;;7.95;5.28;;;;;;;20.44;100.00;99037.47;1710294;82;21180;-72
2021/08/12 01:22:47;;;;;;;10.00;5.65;;;;;;;20.40;100.00;99040.77;1768685;80;21083;-74
2021/08/12 01:25:26;;;;;;;10.35;5.90;;;;;;;20.35;100.00;99038.75;1783900;80;20913;-74
2021/08/12 01:27:58;;;;;;;10.45;5.58;;;;;;;20.31;100.00;99041.14;1702819;83;20945;-74
2021/08/12 01:30:30;;;;;;;9.63;5.05;;;;;;;20.27;100.00;99044.04;1748273;81;20957;-72
2021/08/12 01:33:17;;;;;;;6.15;5.03;;;;;;;20.23;100.00;99032.60;1707487;82;20926;-71
2021/08/12 01:35:46;;;;;;;9.45;5.33;;;;;;;20.23;100.00;99037.09;1710019;82;21404;-71
2021/08/12 01:38:19;;;;;;;7.72;5.20;;;;;;;20.21;100.00;99045.20;1748029;81;20933;-71
2021/08/12 01:40:51;;;;;;;8.48;5.37;;;;;;;20.18;100.00;99039.11;1752334;82;21484;-72
2021/08/12 01:43:21;;;;;;;9.05;5.15;;;;;;;20.15;100.00;99038.79;1744836;82;20882;-71
2021/08/12 01:45:54;;;;;;;8.03;5.35;;;;;;;20.11;100.00;99040.74;1751901;81;20883;-72
2021/08/12 01:48:24;;;;;;;;;;;;;;;20.07;100.00;99043.16;1751188;82;21163;-71
2021/08/12 01:50:54;;;;;;;8.18;4.78;;;;;;;20.04;100.00;99044.64;1750461;82;20415;-71
2021/08/12 01:53:22;;;;;;;7.10;5.03;;;;;;;20.01;100.00;99042.58;1749350;80;21110;-72
2021/08/12 01:55:51;;;;;;;8.65;4.85;;;;;;;19.98;100.00;99044.06;1746767;81;20959;-72
2021/08/12 01:58:22;;;;;;;8.15;5.10;;;;;;;19.97;100.00;99044.53;1744382;81;21457;-74
2021/08/12 02:00:52;;;;;;;7.62;5.05;;;;;;;19.96;100.00;99046.81;1727622;82;21126;-75
2021/08/12 02:03:20;;;;;;;8.63;4.85;;;;;;;19.94;100.00;99047.34;1727372;82;20922;-75
2021/08/12 02:05:49;;;;;;;6.80;5.20;;;;;;;19.92;100.00;99051.91;1716177;83;20961;-73
2021/08/12 02:08:20;;;;;;;10.65;5.28;;;;;;;19.90;100.00;99052.45;1721335;81;21062;-72
2021/08/12 02:10:50;;;;;;;7.22;5.25;;;;;;;19.87;100.00;99052.58;1717581;83;20891;-73
2021/08/12 02:13:18;;;;;;;9.45;5.67;;;;;;;19.83;100.00;99051.42;1717546;82;22005;-72
2021/08/12 02:15:49;;;;;;;9.90;5.35;;;;;;;19.80;100.00;99047.95;1700216;83;21093;-73
2021/08/12 02:18:18;;;;;;;9.05;5.08;;;;;;;19.77;100.00;99049.89;1705405;84;21111;-72
2021/08/12 02:20:52;;;;;;;12.07;4.80;;;;;;;19.76;100.00;99056.18;1703457;83;21048;-72
2021/08/12 02:23:28;;;;;;;9.80;5.30;;;;;;;19.73;100.00;99059.87;1716411;83;20871;-72
2021/08/12 02:26:04;;;;;;;8.35;4.75;;;;;;;19.70;100.00;99063.15;1708680;83;21179;-74
2021/08/12 02:28:32;;;;;;;8.30;5.25;;;;;;;19.66;100.00;99065.56;1695258;83;20974;-72
2021/08/12 02:31:00;;;;;;;8.13;4.60;;;;;;;19.64;100.00;99072.78;1658649;85;21015;-73
2021/08/12 02:33:32;;;;;;;10.82;4.83;;;;;;;19.59;100.00;99067.64;1676679;84;21549;-73
2021/08/12 02:35:59;;;;;;;7.47;4.72;;;;;;;19.58;100.00;99071.25;1676777;85;20906;-71
2021/08/12 02:38:27;;;;;;;5.47;4.55;;;;;;;19.57;100.00;99068.64;1694692;84;21350;-71
2021/08/12 02:40:57;;;;;;;7.20;4.85;;;;;;;19.56;100.00;99067.77;1699915;83;20959;-72
2021/08/12 02:43:25;;;;;;;9.98;4.80;;;;;;;19.55;100.00;99074.53;1679210;83;21063;-73
2021/08/12 02:45:55;;;;;;;8.25;5.10;;;;;;;19.53;100.00;99079.08;1686986;84;21048;-72
2021/08/12 02:48:26;;;;;;;7.40;4.85;;;;;;;19.49;100.00;99080.52;1695350;83;20958;-72
2021/08/12 02:50:54;;;;;;;6.80;4.87;;;;;;;19.47;100.00;99092.22;1679395;84;21202;-73
2021/08/12 02:53:22;;;;;;;8.45;5.03;;;;;;;19.43;100.00;99093.29;1676782;84;20983;-73
2021/08/12 02:55:52;;;;;;;7.80;4.83;;;;;;;19.39;100.00;99095.22;1744120;81;20953;-73
2021/08/12 02:58:20;;;;;;;9.53;4.85;;;;;;;19.37;100.00;99100.20;1740788;81;20993;-72
2021/08/12 03:00:47;;;;;;;7.05;4.83;;;;;;;19.37;100.00;99099.73;1763797;80;21469;-73
2021/08/12 03:03:18;;;;;;;6.87;4.95;;;;;;;19.37;100.00;99101.54;1763806;81;21540;-66
2021/08/12 03:05:47;;;;;;;4.60;4.10;;;;;;;19.34;100.00;99106.55;1761326;80;21034;-64
2021/08/12 03:08:18;;;;;;;10.53;5.05;;;;;;;19.31;100.00;99106.69;1730289;81;20922;-65
2021/08/12 03:10:45;;;;;;;9.18;4.97;;;;;;;19.30;100.00;99112.97;1728125;81;21077;-66
2021/08/12 03:13:13;;;;;;;8.83;6.45;;;;;;;19.27;100.00;99113.09;1727986;81;20927;-65
2021/08/12 03:15:41;;;;;;;12.80;7.28;;;;;;;19.25;100.00;99117.64;1728281;81;21078;-65
2021/08/12 03:18:09;;;;;;;8.53;6.22;;;;;;;19.26;100.00;99118.51;1730434;81;20983;-65
2021/08/12 03:20:37;;;;;;;7.45;5.28;;;;;;;19.28;100.00;99113.50;1728105;81;20902;-64
2021/08/12 03:23:05;;;;;;;7.37;5.28;;;;;;;19.30;100.00;99119.66;1707083;82;20943;-64
2021/08/12 03:25:33;;;;;;;8.53;5.65;;;;;;;19.30;100.00;99114.77;1728013;81;20899;-65
2021/08/12 03:28:01;;;;;;;10.58;6.80;;;;;;;19.30;100.00;99112.97;1749199;81;21235;-65
2021/08/12 03:30:29;;;;;;;11.80;6.50;;;;;;;19.31;100.00;99117.84;1788187;80;20870;-64
2021/08/12 03:32:58;;;;;;;8.28;5.83;;;;;;;19.30;100.00;99119.66;1728221;81;21365;-65
2021/08/12 03:35:27;;;;;;;8.85;5.12;;;;;;;19.31;100.00;99123.20;1733003;80;20906;-62
2021/08/12 03:37:55;;;;;;;11.73;4.85;;;;;;;19.30;100.00;99122.80;1751578;80;21029;-62
2021/08/12 03:40:24;;;;;;;6.05;4.67;;;;;;;19.34;100.00;99122.60;1720061;81;21606;-62
2021/08/12 03:42:52;;;;;;;8.15;4.53;;;;;;;19.37;100.00;99118.93;1711150;82;21182;-62
2021/08/12 03:45:20;;;;;;;7.92;5.00;;;;;;;19.40;100.00;99122.84;1711540;83;21004;-60
2021/08/12 03:47:48;;;;;;;10.45;5.00;;;;;;;19.42;100.00;99126.33;1704229;83;21025;-62
2021/08/12 03:50:16;;;;;;;6.70;4.78;;;;;;;19.42;100.00;99117.83;1728062;83;20918;-63
2021/08/12 03:52:45;;;;;;;8.00;4.58;;;;;;;19.45;100.00;99116.83;1705561;81;21109;-62
2021/08/12 03:55:13;;;;;;;6.00;4.83;;;;;;;19.47;100.00;99125.19;1728608;81;20927;-62
2021/08/12 03:57:43;;;;;;;7.80;4.85;;;;;;;19.51;100.00;99127.27;1728058;83;20963;-62
2021/08/12 04:00:13;;;;;;;5.70;4.87;;;;;;;19.56;100.00;99131.12;1728322;81;21003;-62
2021/08/12 04:02:43;;;;;;;;;;;;;;;19.60;100.00;99130.92;1730312;83;20935;-61
2021/08/12 04:05:12;;;;;;;6.10;4.60;;;;;;;19.63;100.00;99133.93;1705423;83;21127;-61
2021/08/12 04:07:40;;;;;;;7.30;4.75;;;;;;;19.66;100.00;99136.47;1728010;83;21374;-62
2021/08/12 04:10:10;;;;;;;7.47;4.33;;;;;;;19.67;100.00;99140.42;1728128;81;21556;-62
2021/08/12 04:12:38;;;;;;;5.83;4.62;;;;;;;19.69;100.00;99147.05;1729648;83;21054;-61
2021/08/12 04:15:07;;;;;;;12.30;4.33;;;;;;;19.73;100.00;99147.31;1711622;82;20947;-60
2021/08/12 04:17:35;;;;;;;7.85;4.58;;;;;;;19.77;100.00;99147.11;1730068;83;21160;-60
2021/08/12 04:20:05;;;;;;;12.15;7.58;;;;;;;19.80;100.00;99140.75;1702483;83;21515;-61
2021/08/12 04:22:33;;;;;;;19.48;11.40;;;;;;;19.87;100.00;99152.97;1728161;83;20930;-66
2021/08/12 04:25:01;;;;;;;26.23;15.15;;;;;;;19.92;100.00;99149.63;1727380;83;21129;-65
2021/08/12 04:27:30;;;;;;;27.35;14.78;;;;;;;19.99;100.00;99152.89;1728002;81;21528;-65
2021/08/12 04:29:58;;;;;;;16.50;10.15;;;;;;;20.04;100.00;99162.46;1726559;83;21126;-64
2021/08/12 04:32:26;;;;;;;16.12;10.03;;;;;;;20.10;100.00;99159.52;1729158;81;21532;-64
2021/08/12 04:34:54;;;;;;;11.95;8.05;;;;;;;20.14;100.00;99162.92;1711874;82;20868;-66
2021/08/12 04:37:22;;;;;;;8.43;6.85;;;;;;;20.18;100.00;99165.86;1711298;83;20916;-65
2021/08/12 04:39:55;;;;;;;10.25;6.33;;;;;;;20.20;100.00;99153.27;1705637;83;21431;-65
2021/08/12 04:42:21;;;;;;;5.72;4.85;;;;;;;20.25;100.00;99155.74;1727423;83;21183;-65
2021/08/12 04:44:50;;;;;;;8.30;5.72;;;;;;;20.29;100.00;99160.02;1729800;83;20913;-66
2021/08/12 04:47:18;;;;;;;8.65;6.15;;;;;;;20.35;100.00;99157.09;1730050;83;20917;-65
2021/08/12 04:49:46;;;;;;;10.60;6.22;;;;;;;20.41;100.00;99163.07;1730199;83;20956;-65
2021/08/12 04:52:15;;;;;;;11.38;8.40;;;;;;;20.45;100.00;99162.46;1722657;83;20969;-67
2021/08/12 04:54:45;;;;;;;11.68;7.08;;;;;;;20.50;100.00;99170.28;1687107;81;21147;-67
2021/08/12 04:57:31;;;;;;;11.88;6.70;;;;;;;20.55;100.00;99177.17;1761249;81;20902;-67
2021/08/12 05:00:05;;;;;;;7.22;5.10;;;;;;;20.60;100.00;99180.51;1760982;80;20921;-67
2021/08/12 05:02:33;;;;;;;6.75;5.17;;;;;;;20.64;100.00;99190.14;1761707;81;20913;-67
2021/08/12 05:05:03;;;;;;;7.55;5.20;;;;;;;20.66;100.00;99184.71;1761614;80;21500;-62
2021/08/12 05:07:32;;;;;;;7.80;4.72;;;;;;;20.67;100.00;99188.66;1761470;80;21975;-66
2021/08/12 05:10:01;;;;;;;5.67;4.87;;;;;;;20.71;100.00;99186.23;1761201;81;20949;-64
2021/08/12 05:12:29;;;;;;;8.43;4.97;;;;;;;20.75;100.00;99194.53;1704648;83;20948;-69
2021/08/12 05:14:58;;;;;;;6.30;4.70;;;;;;;20.79;100.00;99195.73;1704701;84;20948;-69
2021/08/12 05:17:28;;;;;;;6.47;4.70;;;;;;;20.84;100.00;99198.63;1719827;82;21574;-70
2021/08/12 05:19:55;;;;;;;5.87;4.28;;;;;;;20.91;100.00;99196.52;1717762;82;21844;-70
2021/08/12 05:22:23;;;;;;;10.18;4.58;;;;;;;20.95;100.00;99196.78;1719088;82;20909;-69
2021/08/12 05:24:51;;;;;;;5.72;4.50;;;;;;;20.99;100.00;99191.66;1718611;82;21446;-70
2021/08/12 05:27:20;;;;;;;6.78;4.55;;;;;;;21.04;100.00;99197.20;1714876;82;20950;-70
2021/08/12 05:29:48;;;;;;;5.83;4.60;;;;;;;21.11;100.00;99197.78;1720205;82;21020;-70
2021/08/12 05:32:20;;;;;;;8.08;4.75;;;;;;;21.18;100.00;99197.01;1775024;78;21134;-71
2021/08/12 05:34:49;;;;;;;7.28;4.53;;;;;;;21.23;100.00;99189.64;1754144;80;21076;-69
2021/08/12 05:37:16;;;;;;;7.10;4.60;;;;;;;21.30;100.00;99193.32;1779564;78;21037;-68
2021/08/12 05:39:44;;;;;;;8.60;4.65;;;;;;;21.40;100.00;99193.73;1777624;78;20886;-69
2021/08/12 05:42:11;;;;;;;7.50;4.78;;;;;;;21.48;100.00;99185.30;1749592;79;20993;-70
2021/08/12 05:44:40;;;;;;;5.25;4.20;;;;;;;21.55;100.00;99188.08;1720681;82;21456;-69
2021/08/12 05:47:08;;;;;;;6.12;4.70;;;;;;;21.59;100.00;99177.11;1776317;78;21448;-69
2021/08/12 05:49:35;;;;;;;5.50;4.72;;;;;;;21.64;100.00;99180.90;1777263;80;20972;-70
2021/08/12 05:52:04;;;;;;;7.28;4.90;;;;;;;21.68;100.00;99177.98;1775004;80;20886;-68
2021/08/12 05:54:33;;;;;;;8.15;4.60;;;;;;;21.73;100.00;99180.43;1754843;80;21458;-69
2021/08/12 05:57:00;;;;;;;6.08;4.80;;;;;;;21.79;100.00;99177.46;1761249;80;21057;-69
2021/08/12 05:59:29;;;;;;;6.78;5.00;;;;;;;21.86;100.00;99176.67;1738313;81;20855;-69
2021/08/12 06:01:57;;;;;;;7.37;4.97;;;;;;;21.94;100.00;99182.52;1721579;82;21454;-69
2021/08/12 06:04:26;;;;;;;19.92;5.42;;;;;;;21.98;100.00;99182.28;1719618;82;20952;-68
2021/08/12 06:06:55;;;;;;;7.15;4.37;;;;;;;22.06;100.00;99189.09;1717527;82;20920;-69
2021/08/12 06:09:24;;;;;;;6.95;4.97;;;;;;;22.11;100.00;99188.38;1741316;80;20899;-69
2021/08/12 06:11:53;;;;;;;10.60;4.80;;;;;;;22.15;100.00;99191.30;1763659;80;20891;-69
2021/08/12 06:14:21;;;;;;;6.20;4.47;;;;;;;22.22;100.00;99196.27;1761559;80;20926;-68
2021/08/12 06:16:48;;;;;;;5.85;4.40;;;;;;;22.29;100.00;99199.05;1738076;81;21413;-69
2021/08/12 06:19:18;;;;;;;5.55;3.90;;;;;;;22.38;100.00;99203.07;1718906;82;21446;-69
2021/08/12 06:21:46;;;;;;;6.83;4.10;;;;;;;22.46;100.00;99198.16;1696793;82;21436;-69
2021/08/12 06:24:14;;;;;;;8.18;3.52;;;;;;;22.55;100.00;99201.69;1718020;82;20911;-69
2021/08/12 06:26:43;;;;;;;6.00;3.77;;;;;;;22.63;100.00;99197.23;1719082;82;21547;-70
2021/08/12 06:29:12;;;;;;;4.40;3.50;;;;;;;22.70;100.00;99196.42;1715127;82;21029;-75
2021/08/12 06:31:39;;;;;;;4.62;3.30;;;;;;;22.78;100.00;99203.63;1711776;82;20962;-68
2021/08/12 06:34:08;;;;;;;6.05;3.80;;;;;;;22.83;100.00;99199.77;1717607;82;21098;-69
2021/08/12 06:36:35;;;;;;;4.97;3.85;;;;;;;22.90;100.00;99201.64;1699976;82;20956;-69
2021/08/12 06:39:04;;;;;;;6.03;4.00;;;;;;;22.95;100.00;99205.41;1760464;80;20914;-67
2021/08/12 06:41:32;;;;;;;4.80;3.70;;;;;;;22.96;100.00;99197.73;1762606;80;20934;-67
2021/08/12 06:44:02;;;;;;;6.78;3.87;;;;;;;22.96;100.00;99202.64;1752534;80;21452;-66
2021/08/12 06:46:31;;;;;;;6.03;3.65;;;;;;;23.04;100.00;99208.94;1730703;82;21911;-66
2021/08/12 06:49:00;;;;;;;5.25;3.27;;;;;;;23.13;100.00;99212.45;1757760;80;20907;-65
2021/08/12 06:51:28;;;;;;;4.60;3.47;;;;;;;23.21;100.00;99209.75;1738214;81;20958;-65
2021/08/12 06:53:57;;;;;;;5.00;3.12;;;;;;;23.30;100.00;99208.84;1715673;82;20916;-66
2021/08/12 06:56:26;;;;;;;4.28;3.30;;;;;;;23.33;100.00;99219.42;1757926;80;20913;-66
2021/08/12 06:58:55;;;;;;;4.12;3.20;;;;;;;23.40;100.00;99216.77;1731214;82;20905;-67
2021/08/12 07:01:22;;;;;;;3.10;2.47;;;;;;;23.45;100.00;99212.86;1766554;80;20848;-66
2021/08/12 07:03:51;;;;;;;4.20;2.72;;;;;;;23.52;100.00;99217.41;1754352;81;20954;-65
2021/08/12 07:06:18;;;;;;;4.53;3.02;;;;;;;23.60;100.00;99216.52;1753934;81;20882;-66
2021/08/12 07:08:47;;;;;;;4.22;2.83;;;;;;;23.67;100.00;99219.27;1743759;81;20918;-67
2021/08/12 07:11:15;;;;;;;3.67;2.67;;;;;;;23.75;100.00;99222.39;1719781;82;21101;-66
2021/08/12 07:13:46;;;;;;;4.75;2.20;;;;;;;23.82;100.00;99225.11;1714392;82;21003;-66
2021/08/12 07:16:15;;;;;;;6.37;2.40;;;;;;;23.90;100.00;99223.30;1719333;82;20907;-66
2021/08/12 07:19:02;;;;;;;5.40;2.70;;;;;;;23.94;100.00;99225.34;1721475;82;20946;-65
2021/08/12 07:21:30;;;;;;;4.67;2.35;;;;;;;24.01;100.00;99238.35;1719625;82;20952;-65
2021/08/12 07:24:17;;;;;;;5.15;2.50;;;;;;;24.05;100.00;99231.81;1719821;82;20960;-65
2021/08/12 07:26:47;;;;;;;5.00;2.25;;;;;;;24.10;100.00;99232.41;1714654;82;21071;-65
2021/08/12 07:29:15;;;;;;;3.55;2.47;;;;;;;24.12;100.00;99233.22;1726658;82;21010;-65
2021/08/12 07:31:43;;;;;;;12.47;2.27;;;;;;;24.19;100.00;99241.80;1731119;82;20864;-65
2021/08/12 07:34:10;;;;;;;3.08;2.27;;;;;;;24.24;100.00;99235.66;1699671;82;20952;-65
2021/08/12 07:36:57;;;;;;;4.95;2.02;;;;;;;24.26;99.37;99239.13;1716336;82;21413;-65
2021/08/12 07:39:24;;;;;;;2.87;2.12;;;;;;;24.29;98.60;99240.80;1719106;82;21463;-65
2021/08/12 07:41:52;;;;;;;2.52;2.05;;;;;;;24.33;98.95;99239.65;1719974;82;20905;-65
2021/08/12 07:44:20;;;;;;;3.45;2.20;;;;;;;24.37;98.66;99242.06;1719231;82;20963;-65
2021/08/12 07:46:49;;;;;;;3.95;2.40;;;;;;;24.43;99.16;99247.08;1724952;82;21503;-65
2021/08/12 07:49:19;;;;;;;3.47;2.37;;;;;;;24.48;99.97;99242.27;1755308;80;21481;-64
2021/08/12 07:51:49;;;;;;;6.22;2.17;;;;;;;24.55;100.00;99244.59;1762869;80;20946;-64
2021/08/12 07:54:17;;;;;;;3.10;2.08;;;;;;;24.63;97.65;99244.53;1736053;81;21064;-64
2021/08/12 07:56:48;;;;;;;3.55;2.25;;;;;;;24.75;97.49;99242.90;1743892;81;21024;-61
2021/08/12 07:59:16;;;;;;;4.12;2.40;;;;;;;24.87;97.80;99246.66;1724795;82;21446;-62
2021/08/12 08:01:46;;;;;;;2.85;1.90;;;;;;;25.00;97.39;99248.99;1726441;82;21780;-62
2021/08/12 08:04:13;;;;;;;3.17;2.20;;;;;;;25.06;94.67;99246.77;1727489;82;21483;-62
2021/08/12 08:06:43;;;;;;;2.83;2.10;;;;;;;25.12;93.58;99246.02;1722377;82;21475;-62
2021/08/12 08:09:12;;;;;;;3.10;2.25;;;;;;;25.17;92.11;99244.77;1725450;82;21502;-64
2021/08/12 08:11:41;;;;;;;4.67;2.02;;;;;;;25.20;89.84;99249.97;1743951;81;21455;-63
2021/08/12 08:14:09;;;;;;;2.70;1.90;;;;;;;25.23;88.65;99244.37;1744483;81;21763;-65
2021/08/12 08:16:38;;;;;;;2.62;2.00;;;;;;;25.23;87.61;99236.75;1746670;81;20907;-65
2021/08/12 08:19:06;;;;;;;15.88;11.95;;;;;;;25.26;88.21;99236.55;1745204;81;20980;-64
2021/08/12 08:21:35;;;;;;;14.25;10.30;;;;;;;25.33;88.68;99241.94;1743572;81;21506;-66
2021/08/12 08:24:03;;;;;;;70.00;48.80;;;;;;;25.43;89.15;99241.72;1746130;81;20914;-64
2021/08/12 08:26:32;;;;;;;19.98;15.88;;;;;;;25.53;90.63;99237.93;1741777;81;20942;-65
2021/08/12 08:29:02;;;;;;;13.18;7.58;;;;;;;25.62;90.04;99232.81;1774471;80;20893;-65
2021/08/12 08:31:31;;;;;;;4.67;3.90;;;;;;;25.73;89.42;99241.10;1744558;81;20965;-65
2021/08/12 08:33:59;;;;;;;8.68;3.15;;;;;;;25.82;89.32;99237.41;1728289;82;21008;-65
2021/08/12 08:36:28;;;;;;;5.03;2.98;;;;;;;25.93;86.75;99225.38;1745122;81;20907;-64
2021/08/12 08:38:55;;;;;;;4.53;2.90;;;;;;;25.99;80.97;99223.13;1746795;81;21076;-64
2021/08/12 08:41:23;;;;;;;5.72;2.70;;;;;;;26.05;80.45;99221.88;1744449;81;20956;-64
2021/08/12 08:43:51;;;;;;;3.72;2.33;;;;;;;26.12;79.19;99225.89;1744226;81;20966;-65
2021/08/12 08:46:21;;;;;;;10.43;2.60;;;;;;;26.19;78.78;99220.44;1743694;81;20900;-63
2021/08/12 08:48:50;;;;;;;6.00;2.58;;;;;;;26.25;77.77;99222.72;1744693;81;20927;-65
2021/08/12 08:51:19;;;;;;;7.10;2.42;;;;;;;26.32;77.60;99229.92;1742501;81;21067;-65
2021/08/12 08:53:46;;;;;;;2.37;2.10;;;;;;;26.40;77.25;99230.28;1723602;81;20916;-66
2021/08/12 08:56:14;;;;;;;3.50;2.20;;;;;;;26.48;77.79;99226.55;1737592;81;20914;-67
2021/08/12 08:58:42;;;;;;;3.65;2.10;;;;;;;26.58;76.70;99233.08;1710417;82;21036;-65
2021/08/12 09:01:09;;;;;;;6.67;2.40;;;;;;;26.66;73.96;99233.89;1766551;80;20934;-65
2021/08/12 09:03:37;;;;;;;6.37;2.42;;;;;;;26.74;75.22;99223.87;1745080;81;21089;-65
2021/08/12 09:06:09;;;;;;;3.72;2.15;;;;;;;26.85;74.34;99231.61;1735619;81;21449;-66
2021/08/12 09:08:37;;;;;;;4.53;2.30;;;;;;;26.95;73.56;99227.27;1773925;79;20937;-66
2021/08/12 09:11:05;;;;;;;5.12;2.47;;;;;;;27.05;71.43;99228.88;1773880;80;20902;-65
2021/08/12 09:13:35;;;;;;;5.53;2.60;;;;;;;27.12;69.17;99225.23;1749971;81;20957;-66
2021/08/12 09:16:05;;;;;;;4.70;2.10;;;;;;;27.18;67.46;99228.84;1775757;79;20938;-66
2021/08/12 09:18:32;;;;;;;6.17;3.00;;;;;;;27.27;68.46;99232.23;1775511;80;20913;-65
2021/08/12 09:21:15;;;;;;;2.47;2.10;;;;;;;27.36;67.84;99222.08;1748498;79;20941;-65
2021/08/12 09:23:43;;;;;;;2.25;1.92;;;;;;;27.44;68.05;99220.19;1755520;79;20934;-65
2021/08/12 09:26:22;;;;;;;3.17;1.95;;;;;;;27.53;68.97;99223.08;1775103;78;20914;-67
2021/08/12 09:28:50;;;;;;;5.17;2.20;;;;;;;27.56;65.63;99220.14;1748812;81;21527;-65
2021/08/12 09:31:17;;;;;;;3.67;2.15;;;;;;;27.61;65.50;99218.47;1749420;81;21014;-66
2021/08/12 09:33:52;;;;;;;3.70;2.33;;;;;;;27.63;63.14;99207.03;1721375;81;20946;-66
2021/08/12 09:36:34;;;;;;;7.75;2.10;;;;;;;27.67;61.81;99222.56;1722329;82;21431;-66
2021/08/12 09:39:20;;;;;;;6.42;1.72;;;;;;;27.69;60.49;99218.76;1772484;80;21520;-68
2021/08/12 09:41:50;;;;;;;9.33;1.92;;;;;;;27.74;59.53;99214.34;1776360;79;21101;-68
2021/08/12 09:44:34;;;;;;;5.85;2.05;;;;;;;27.81;58.42;99211.05;1772324;78;21472;-70
2021/08/12 09:47:17;;;;;;;4.08;1.98;;;;;;;27.88;55.88;99217.73;1711468;79;21041;-69
2021/08/12 09:49:54;;;;;;;2.90;1.85;;;;;;;27.98;56.66;99215.71;1765845;79;21009;-67
2021/08/12 09:52:32;;;;;;;12.05;2.10;;;;;;;28.07;57.08;99213.16;1766680;79;20914;-68
2021/08/12 09:55:06;;;;;;;3.98;1.92;;;;;;;28.15;56.83;99220.21;1759695;81;21069;-69
2021/08/12 09:57:42;;;;;;;4.28;1.87;;;;;;;28.22;56.71;99215.17;1736348;81;20941;-67
2021/08/12 10:00:08;;;;;;;6.58;2.15;;;;;;;28.29;56.59;99217.81;1709054;83;20902;-67
2021/08/12 10:02:40;;;;;;;7.20;2.42;;;;;;;28.37;55.20;99220.79;1729476;81;20914;-66
2021/08/12 10:05:09;;;;;;;2.20;1.95;;;;;;;28.40;54.46;99212.45;1729019;82;20958;-66
2021/08/12 10:07:46;;;;;;;4.33;2.12;;;;;;;28.47;55.38;99212.83;1734364;81;21879;-67
2021/08/12 10:10:25;;;;;;;9.03;1.98;;;;;;;28.51;52.90;99213.82;1705160;82;20885;-67
2021/08/12 10:12:58;;;;;;;6.50;1.92;;;;;;;28.54;51.41;99211.36;1705067;82;21480;-66
2021/08/12 10:15:33;;;;;;;2.83;2.05;;;;;;;28.58;52.85;99219.62;1736208;81;21500;-68
2021/08/12 10:18:03;;;;;;;2.40;1.80;;;;;;;28.66;53.84;99223.09;1705088;84;21544;-67
2021/08/12 10:20:35;;;;;;;3.80;2.10;;;;;;;28.75;55.16;99221.00;1762101;80;21511;-65
2021/08/12 10:23:05;;;;;;;3.67;1.97;;;;;;;28.85;54.70;99219.31;1790358;78;20870;-65
2021/08/12 10:25:36;;;;;;;3.47;2.08;;;;;;;28.94;55.36;99217.24;1767281;81;20942;-66
2021/08/12 10:28:07;;;;;;;5.47;2.27;;;;;;;29.05;55.25;99217.23;1767099;80;20945;-65
2021/08/12 10:30:35;;;;;;;3.12;2.10;;;;;;;29.12;54.01;99213.52;1777716;79;20969;-67
2021/08/12 10:33:06;;;;;;;4.45;2.27;;;;;;;29.12;53.03;99214.88;1789379;78;21805;-65
2021/08/12 10:35:36;;;;;;;4.10;2.10;;;;;;;29.14;52.17;99205.63;1730287;82;20978;-68
2021/08/12 10:38:04;;;;;;;5.10;2.27;;;;;;;29.13;50.03;99208.46;1707455;82;20942;-69
2021/08/12 10:40:36;;;;;;;7.87;2.20;;;;;;;29.10;48.78;99212.30;1792555;78;21567;-68
2021/08/12 10:43:06;;;;;;;3.60;2.15;;;;;;;29.08;48.78;99213.41;1746933;81;20906;-68
2021/08/12 10:45:35;;;;;;;3.15;2.40;;;;;;;29.11;48.77;99214.02;1731448;81;20897;-68
2021/08/12 10:48:23;;;;;;;4.53;2.20;;;;;;;29.23;50.98;99214.88;1745220;81;20938;-66
2021/08/12 10:51:11;;;;;;;12.28;2.10;;;;;;;29.34;48.80;99214.88;1734357;82;20948;-67
2021/08/12 10:53:43;;;;;;;2.87;1.92;;;;;;;29.43;49.00;99213.26;1736667;81;20969;-67
2021/08/12 10:56:16;;;;;;;;;;;;;;;29.49;48.19;99211.92;1737283;82;21637;-67
2021/08/12 10:58:47;;;;;;;4.15;1.98;;;;;;;29.52;48.45;99213.89;1709512;82;21052;-67
2021/08/12 11:01:34;;;;;;;4.12;2.58;;;;;;;29.57;47.66;99214.37;1729437;81;20943;-67
2021/08/12 11:04:04;;;;;;;6.25;3.27;;;;;;;29.60;47.38;99215.47;1721324;83;20903;-67
2021/08/12 11:06:40;;;;;;;12.00;4.10;;;;;;;29.62;47.61;99222.14;1770275;79;20855;-67
2021/08/12 11:09:09;;;;;;;10.43;3.37;;;;;;;29.67;47.00;99213.10;1781052;78;21418;-66
2021/08/12 11:11:42;;;;;;;5.72;2.25;;;;;;;29.65;45.74;99220.52;1750670;81;21814;-66
2021/08/12 11:14:13;;;;;;;10.70;1.82;;;;;;;29.68;46.06;99225.70;1737877;81;21409;-66
2021/08/12 11:16:49;;;;;;;7.30;2.30;;;;;;;29.75;45.12;99224.20;1744675;81;21323;-64
2021/08/12 11:19:35;;;;;;;4.20;2.25;;;;;;;29.80;45.34;99231.50;1742832;80;20874;-67
2021/08/12 11:22:09;;;;;;;3.67;2.15;;;;;;;29.86;45.23;99224.69;1746844;81;20910;-71
2021/08/12 11:24:43;;;;;;;3.15;2.40;;;;;;;29.89;44.14;99242.10;1737520;81;21136;-70
2021/08/12 11:27:12;;;;;;;3.60;2.12;;;;;;;29.90;44.56;99244.69;1733942;80;21461;-70
2021/08/12 11:29:40;;;;;;;4.40;2.10;;;;;;;29.93;44.49;99236.27;1751370;80;21417;-70
2021/08/12 11:32:13;;;;;;;7.90;2.47;;;;;;;29.98;44.77;99242.19;1756399;81;21009;-70
2021/08/12 11:34:57;;;;;;;7.90;2.60;;;;;;;29.99;44.32;99247.13;1729569;81;20953;-71
2021/08/12 11:37:29;;;;;;;3.65;2.20;;;;;;;30.01;44.57;99241.92;1756793;81;21088;-70
2021/08/12 11:40:09;;;;;;;;;;;;;;;30.10;45.62;99234.01;1761672;80;20986;-70
2021/08/12 11:42:41;;;;;;;5.85;1.95;;;;;;;30.21;45.30;99235.31;1745338;81;20419;-70